Time;durP1;ratioP1;P1;durP2;ratioP2;P2;SDS_P1;SDS_P2;PMS_P1;PMS_P2;Temp;Humidity;BMP_temperature;BMP_pressure;BME280_temperature;BME280_humidity;BME280_pressure;Samples;Min_cycle;Max_cycle;Signal;HPM_P1;HPM_P2
2023/11/28 00:01:36;;;;;;;5.13;3.60;;;23.90;99.90;;;;;;4992424;28;20113;-47
2023/11/28 00:04:02;;;;;;;5.00;4.35;;;23.90;99.90;;;;;;4992774;28;20046;-47
2023/11/28 00:06:28;;;;;;;5.57;3.50;;;23.90;99.90;;;;;;4992779;28;20027;-47
2023/11/28 00:08:54;;;;;;;8.80;4.07;;;23.80;99.90;;;;;;4992465;28;20026;-47
2023/11/28 00:11:21;;;;;;;7.38;4.10;;;23.80;99.90;;;;;;4992754;28;20037;-47
2023/11/28 00:13:48;;;;;;;4.22;3.65;;;23.80;99.90;;;;;;4994808;28;20014;-47
2023/11/28 00:16:15;;;;;;;7.22;3.65;;;23.70;99.90;;;;;;4996212;28;20474;-47
2023/11/28 00:18:40;;;;;;;6.28;3.90;;;23.70;99.90;;;;;;4996106;28;20033;-47
2023/11/28 00:21:06;;;;;;;6.05;3.50;;;23.70;99.90;;;;;;4996025;28;20026;-47
2023/11/28 00:23:32;;;;;;;9.07;4.45;;;23.70;99.90;;;;;;4996275;28;20470;-47
2023/11/28 00:25:58;;;;;;;7.50;3.78;;;23.70;99.90;;;;;;4996194;28;20085;-49
2023/11/28 00:28:25;;;;;;;5.25;3.75;;;23.70;99.90;;;;;;4994666;28;20034;-48
2023/11/28 00:30:54;;;;;;;8.43;4.18;;;23.70;99.90;;;;;;5011093;28;20052;-47
2023/11/28 00:33:20;;;;;;;8.35;3.88;;;23.60;99.90;;;;;;4995853;28;20030;-48
2023/11/28 00:35:46;;;;;;;5.57;3.95;;;23.60;99.90;;;;;;4995994;28;20030;-48
2023/11/28 00:38:13;;;;;;;8.23;3.88;;;23.60;99.90;;;;;;4995941;28;20023;-49
2023/11/28 00:40:44;;;;;;;5.88;3.35;;;23.60;99.90;;;;;;4995894;28;20422;-48
2023/11/28 00:43:10;;;;;;;7.15;3.55;;;23.60;99.90;;;;;;4995757;28;20483;-47
2023/11/28 00:45:35;;;;;;;5.85;3.45;;;23.60;99.90;;;;;;4995630;28;20068;-48
2023/11/28 00:48:01;;;;;;;7.68;3.92;;;23.60;99.90;;;;;;4995953;28;20022;-47
2023/11/28 00:50:27;;;;;;;11.70;4.10;;;23.60;99.90;;;;;;4995698;28;20038;-48
2023/11/28 00:52:53;;;;;;;7.20;3.80;;;23.50;99.90;;;;;;4995608;28;20494;-48
2023/11/28 00:55:18;;;;;;;6.88;3.97;;;23.50;99.90;;;;;;5010583;28;20387;-48
2023/11/28 00:57:45;;;;;;;6.15;4.05;;;23.50;99.90;;;;;;4995460;28;20033;-48
2023/11/28 01:00:12;;;;;;;9.40;3.65;;;23.50;99.90;;;;;;5010427;28;20351;-49
2023/11/28 01:02:39;;;;;;;5.22;3.70;;;23.50;99.90;;;;;;4995156;28;20403;-49
2023/11/28 01:05:08;;;;;;;5.40;3.78;;;23.50;99.90;;;;;;4995552;28;20034;-48
2023/11/28 01:07:34;;;;;;;5.65;3.90;;;23.50;99.90;;;;;;4995495;28;20045;-48
2023/11/28 01:10:00;;;;;;;6.72;4.35;;;23.40;99.90;;;;;;4995298;28;20027;-48
2023/11/28 01:12:26;;;;;;;7.75;3.97;;;23.40;99.90;;;;;;4995338;28;20341;-48
2023/11/28 01:14:52;;;;;;;8.48;4.03;;;23.40;99.90;;;;;;4994089;28;20027;-47
2023/11/28 01:17:18;;;;;;;8.95;3.88;;;23.40;99.90;;;;;;4995167;28;20475;-47
2023/11/28 01:19:43;;;;;;;6.78;3.85;;;23.40;99.90;;;;;;4995232;28;20065;-48
2023/11/28 01:22:11;;;;;;;6.65;3.85;;;23.40;99.90;;;;;;4995066;28;20057;-47
2023/11/28 01:24:38;;;;;;;7.15;3.50;;;23.40;99.90;;;;;;4994403;28;20033;-48
2023/11/28 01:27:04;;;;;;;11.00;4.90;;;23.30;99.90;;;;;;4995116;28;20498;-48
2023/11/28 01:29:30;;;;;;;6.70;4.45;;;23.40;99.90;;;;;;4994976;28;20030;-48
2023/11/28 01:31:56;;;;;;;6.88;4.00;;;23.40;99.90;;;;;;4994775;28;20084;-48
2023/11/28 01:34:22;;;;;;;6.30;4.30;;;23.30;99.90;;;;;;4994777;28;20101;-48
2023/11/28 01:36:49;;;;;;;5.32;3.80;;;23.30;99.90;;;;;;4994807;28;20126;-48
2023/11/28 01:39:15;;;;;;;8.95;4.57;;;23.30;99.90;;;;;;4994864;28;20022;-47
2023/11/28 01:41:42;;;;;;;6.95;3.63;;;23.30;99.90;;;;;;4993519;28;20391;-48
2023/11/28 01:44:08;;;;;;;4.82;3.90;;;23.30;99.90;;;;;;4994906;28;20088;-48
2023/11/28 01:46:35;;;;;;;4.97;3.67;;;23.30;99.90;;;;;;4994541;28;20113;-50
2023/11/28 01:49:02;;;;;;;;;;;23.30;99.90;;;;;;4995008;28;20031;-48
2023/11/28 01:51:29;;;;;;;7.95;4.25;;;23.30;99.90;;;;;;4994647;28;19905;-48
2023/11/28 01:53:58;;;;;;;9.87;3.90;;;23.20;99.90;;;;;;4993409;28;20105;-48
2023/11/28 01:56:24;;;;;;;5.38;3.50;;;23.20;99.90;;;;;;5009667;28;20279;-48
2023/11/28 01:58:54;;;;;;;6.38;3.35;;;23.20;99.90;;;;;;4994496;28;20032;-48
2023/11/28 02:01:21;;;;;;;7.13;3.78;;;23.20;99.90;;;;;;4998709;23;20411;-45
2023/11/28 02:03:49;;;;;;;6.20;3.57;;;23.20;99.90;;;;;;4974862;28;20027;-44
2023/11/28 02:06:14;;;;;;;6.93;3.65;;;23.20;99.90;;;;;;4974937;28;20343;-45
2023/11/28 02:08:41;;;;;;;6.80;4.07;;;23.10;99.90;;;;;;4974697;28;20117;-45
2023/11/28 02:11:07;;;;;;;5.22;3.17;;;23.10;99.90;;;;;;4974756;28;20475;-45
2023/11/28 02:13:34;;;;;;;6.35;3.95;;;23.10;99.90;;;;;;4974859;28;20408;-45
2023/11/28 02:16:15;;;;;;;6.30;3.80;;;23.10;99.90;;;;;;4974623;28;20044;-46
2023/11/28 02:18:42;;;;;;;5.40;3.40;;;23.10;99.90;;;;;;4973304;28;20387;-46
2023/11/28 02:21:12;;;;;;;4.72;3.38;;;23.10;99.90;;;;;;4974591;28;20033;-46
2023/11/28 02:23:38;;;;;;;7.82;3.85;;;23.00;99.90;;;;;;4974347;28;20121;-46
2023/11/28 02:26:17;;;;;;;4.43;3.33;;;23.00;99.90;;;;;;4974478;28;20023;-46
2023/11/28 02:28:43;;;;;;;6.00;3.22;;;23.00;99.90;;;;;;4974405;28;20019;-46
2023/11/28 02:31:09;;;;;;;4.97;3.63;;;23.00;99.90;;;;;;4974418;28;20559;-45
2023/11/28 02:33:35;;;;;;;4.63;3.60;;;23.00;99.90;;;;;;4974356;28;20023;-45
2023/11/28 02:36:01;;;;;;;5.53;3.85;;;22.90;99.90;;;;;;4974153;28;20498;-46
2023/11/28 02:38:27;;;;;;;7.75;3.90;;;22.90;99.90;;;;;;4974271;28;20435;-46
2023/11/28 02:40:53;;;;;;;9.48;4.22;;;22.90;99.90;;;;;;4974487;28;20430;-46
2023/11/28 02:43:18;;;;;;;8.38;3.45;;;22.90;99.90;;;;;;4988957;28;20077;-45
2023/11/28 02:45:45;;;;;;;8.20;4.03;;;22.90;99.90;;;;;;4989025;28;20034;-46
2023/11/28 02:48:10;;;;;;;6.00;3.35;;;22.80;99.90;;;;;;4974038;28;20384;-46
2023/11/28 02:50:39;;;;;;;6.85;4.00;;;22.80;99.90;;;;;;4973873;28;20041;-46
2023/11/28 02:53:06;;;;;;;5.63;3.10;;;22.80;99.90;;;;;;4973978;28;20033;-46
2023/11/28 02:55:31;;;;;;;4.63;3.20;;;22.80;99.90;;;;;;4974056;28;20027;-46
2023/11/28 02:57:59;;;;;;;6.28;4.13;;;22.80;99.90;;;;;;4974066;28;20114;-45
2023/11/28 03:00:25;;;;;;;5.90;3.42;;;22.80;99.90;;;;;;4987245;23;20226;-48
2023/11/28 03:02:50;;;;;;;6.93;3.80;;;22.80;99.90;;;;;;4992327;28;20125;-48
2023/11/28 03:05:16;;;;;;;8.20;3.70;;;22.70;99.90;;;;;;4993099;28;20035;-48
2023/11/28 03:07:44;;;;;;;6.22;3.75;;;22.70;99.90;;;;;;4993362;28;20046;-48
2023/11/28 03:10:10;;;;;;;8.88;3.50;;;22.70;99.90;;;;;;4993171;28;20493;-48
2023/11/28 03:12:35;;;;;;;5.03;3.55;;;22.70;99.90;;;;;;4993029;28;20098;-50
2023/11/28 03:15:03;;;;;;;5.25;3.20;;;22.70;99.90;;;;;;4993090;28;20054;-48
2023/11/28 03:17:28;;;;;;;6.13;3.85;;;22.60;99.90;;;;;;4993163;28;20030;-48
2023/11/28 03:19:54;;;;;;;13.13;3.78;;;22.70;99.90;;;;;;4993359;28;20153;-48
2023/11/28 03:22:20;;;;;;;5.07;3.78;;;22.70;99.90;;;;;;4993067;28;20117;-47
2023/11/28 03:24:46;;;;;;;5.45;3.70;;;22.60;99.90;;;;;;4992948;28;20038;-48
2023/11/28 03:27:12;;;;;;;5.55;3.53;;;22.60;99.90;;;;;;4991659;28;20500;-48
2023/11/28 03:29:39;;;;;;;6.00;3.67;;;22.60;99.90;;;;;;4992872;28;20109;-47
2023/11/28 03:32:05;;;;;;;6.15;3.80;;;22.60;99.90;;;;;;4993025;28;20099;-48
2023/11/28 03:34:30;;;;;;;4.45;3.42;;;22.60;99.90;;;;;;4992963;28;20029;-48
2023/11/28 03:36:59;;;;;;;6.18;3.53;;;22.60;99.90;;;;;;4991859;28;20014;-48
2023/11/28 03:39:25;;;;;;;8.32;4.03;;;22.50;99.90;;;;;;4992993;28;20026;-48
2023/11/28 03:41:51;;;;;;;6.25;3.47;;;22.50;99.90;;;;;;4992791;28;20033;-47
2023/11/28 03:44:17;;;;;;;9.95;3.95;;;22.50;99.90;;;;;;4992675;28;20463;-47
2023/11/28 03:46:43;;;;;;;8.52;3.53;;;22.50;99.90;;;;;;4992597;28;20035;-47
2023/11/28 03:49:09;;;;;;;5.05;3.80;;;22.50;99.90;;;;;;4995745;28;20541;-48
2023/11/28 03:51:38;;;;;;;11.52;3.60;;;22.50;99.90;;;;;;4996732;28;20034;-47
2023/11/28 03:54:05;;;;;;;8.25;4.10;;;22.50;99.90;;;;;;4996613;28;20085;-47
2023/11/28 03:56:31;;;;;;;8.07;3.47;;;22.40;99.90;;;;;;4996766;28;20096;-48
2023/11/28 03:58:57;;;;;;;5.07;3.75;;;22.50;99.90;;;;;;4996581;28;20471;-47
2023/11/28 04:01:23;;;;;;;3.67;3.00;;;22.40;99.90;;;;;;4996787;28;20141;-47
2023/11/28 04:03:49;;;;;;;5.82;3.28;;;22.50;99.90;;;;;;4995134;28;20030;-48
2023/11/28 04:06:15;;;;;;;5.68;3.00;;;22.40;99.90;;;;;;4996447;28;20022;-47
2023/11/28 04:08:40;;;;;;;5.88;3.60;;;22.40;99.90;;;;;;4996452;28;20022;-47
2023/11/28 04:11:07;;;;;;;4.18;2.92;;;22.40;99.90;;;;;;4996255;28;20062;-47
2023/11/28 04:13:32;;;;;;;5.82;3.58;;;22.40;99.90;;;;;;5011380;28;20502;-48
2023/11/28 04:15:58;;;;;;;6.15;3.63;;;22.40;99.90;;;;;;4996359;28;20027;-47
2023/11/28 04:18:24;;;;;;;4.15;3.13;;;22.40;99.90;;;;;;4996346;28;20053;-47
2023/11/28 04:20:50;;;;;;;5.80;3.63;;;22.40;99.90;;;;;;4996251;28;20018;-47
2023/11/28 04:23:16;;;;;;;3.13;2.80;;;22.40;99.90;;;;;;5011383;28;20022;-47
2023/11/28 04:25:42;;;;;;;5.00;2.97;;;22.40;99.90;;;;;;4996240;28;20566;-48
2023/11/28 04:28:08;;;;;;;3.40;2.80;;;22.40;99.90;;;;;;4996119;28;20405;-48
2023/11/28 04:30:34;;;;;;;5.65;2.92;;;22.40;99.90;;;;;;4995981;28;20027;-47
2023/11/28 04:32:59;;;;;;;3.72;3.03;;;22.40;99.90;;;;;;4994946;28;20544;-47
2023/11/28 04:35:25;;;;;;;4.63;2.80;;;22.40;99.90;;;;;;4994723;28;20076;-47
2023/11/28 04:37:51;;;;;;;4.65;2.88;;;22.40;99.90;;;;;;4996009;28;20352;-47
2023/11/28 04:40:17;;;;;;;3.95;2.70;;;22.40;99.90;;;;;;4995942;28;20046;-47
2023/11/28 04:42:42;;;;;;;3.42;2.67;;;22.40;99.90;;;;;;4995886;28;20356;-46
2023/11/28 04:45:10;;;;;;;5.20;3.42;;;22.40;99.90;;;;;;4995701;28;20039;-47
2023/11/28 04:47:35;;;;;;;5.50;3.28;;;22.40;99.90;;;;;;4995717;28;20019;-47
2023/11/28 04:50:01;;;;;;;5.10;3.38;;;22.40;99.90;;;;;;4996212;28;20565;-47
2023/11/28 04:52:27;;;;;;;4.90;3.53;;;22.40;99.90;;;;;;4995565;28;20102;-47
2023/11/28 04:54:53;;;;;;;4.05;2.95;;;22.40;99.90;;;;;;4994370;28;20490;-47
2023/11/28 04:57:19;;;;;;;3.63;2.55;;;22.40;99.90;;;;;;4995547;28;20018;-47
2023/11/28 04:59:44;;;;;;;4.82;2.85;;;22.40;99.90;;;;;;4994125;28;20128;-47
2023/11/28 05:02:10;;;;;;;3.50;2.78;;;22.40;99.90;;;;;;4995836;28;20535;-47
2023/11/28 05:04:36;;;;;;;6.55;3.05;;;22.40;99.90;;;;;;4995406;28;20034;-47
2023/11/28 05:07:03;;;;;;;3.85;2.97;;;22.40;99.90;;;;;;4995698;28;20052;-47
2023/11/28 05:09:29;;;;;;;3.80;2.90;;;22.40;99.90;;;;;;4995366;28;20489;-47
2023/11/28 05:11:55;;;;;;;4.30;2.47;;;22.40;99.90;;;;;;4993931;28;20109;-47
2023/11/28 05:14:21;;;;;;;4.93;2.20;;;22.40;99.90;;;;;;4995156;28;20428;-46
2023/11/28 05:16:46;;;;;;;3.67;2.70;;;22.40;99.90;;;;;;4993858;28;20102;-47
2023/11/28 05:19:12;;;;;;;4.95;2.55;;;22.40;99.90;;;;;;4995071;28;20026;-47
2023/11/28 05:21:38;;;;;;;4.90;2.90;;;22.40;99.90;;;;;;4995007;28;20058;-47
2023/11/28 05:24:04;;;;;;;4.15;2.58;;;22.40;99.90;;;;;;5010177;28;20049;-47
2023/11/28 05:26:30;;;;;;;3.70;2.38;;;22.40;99.90;;;;;;4994983;28;20034;-48
2023/11/28 05:28:55;;;;;;;4.50;2.60;;;22.40;99.90;;;;;;4994897;28;20049;-48
2023/11/28 05:31:22;;;;;;;3.72;2.70;;;22.40;99.90;;;;;;4994893;28;20490;-48
2023/11/28 05:33:47;;;;;;;4.47;2.80;;;22.40;99.90;;;;;;4994840;28;20022;-48
2023/11/28 05:36:13;;;;;;;4.40;2.63;;;22.40;99.90;;;;;;4994792;28;20221;-47
2023/11/28 05:38:39;;;;;;;3.97;2.55;;;22.30;99.90;;;;;;4994819;28;20022;-47
2023/11/28 05:41:05;;;;;;;3.35;2.60;;;22.30;99.90;;;;;;4994939;28;20026;-46
2023/11/28 05:43:32;;;;;;;3.25;2.45;;;22.30;99.90;;;;;;4994534;28;20024;-46
2023/11/28 05:45:58;;;;;;;3.13;2.55;;;22.30;99.90;;;;;;4994556;28;20030;-46
2023/11/28 05:48:25;;;;;;;10.55;2.88;;;22.30;99.90;;;;;;4994452;28;20022;-47
2023/11/28 05:50:54;;;;;;;8.43;2.90;;;22.30;99.90;;;;;;4993222;28;20080;-47
2023/11/28 05:53:19;;;;;;;4.45;2.58;;;22.40;99.90;;;;;;5009276;28;20039;-47
2023/11/28 05:55:46;;;;;;;4.60;2.40;;;22.30;99.90;;;;;;4994536;28;20045;-47
2023/11/28 05:58:13;;;;;;;4.37;2.63;;;22.40;99.90;;;;;;4994372;28;20034;-47
2023/11/28 06:00:39;;;;;;;5.47;3.03;;;22.30;99.90;;;;;;4992880;28;20038;-47
2023/11/28 06:03:05;;;;;;;4.47;2.47;;;22.30;99.90;;;;;;4993872;28;20030;-46
2023/11/28 06:05:31;;;;;;;4.40;2.50;;;22.30;99.90;;;;;;4993298;28;20104;-46
2023/11/28 06:07:57;;;;;;;5.78;2.83;;;22.40;99.90;;;;;;4992583;28;20463;-46
2023/11/28 06:10:23;;;;;;;4.07;2.60;;;22.30;99.90;;;;;;4992952;28;20096;-47
2023/11/28 06:12:49;;;;;;;5.80;3.05;;;22.30;99.90;;;;;;4994107;28;20123;-46
2023/11/28 06:15:15;;;;;;;4.30;2.50;;;22.30;99.90;;;;;;4994031;28;20037;-46
2023/11/28 06:17:40;;;;;;;4.85;2.53;;;22.30;99.90;;;;;;4994003;28;20027;-46
2023/11/28 06:20:07;;;;;;;3.53;2.42;;;22.30;99.90;;;;;;4992841;28;20026;-46
2023/11/28 06:22:33;;;;;;;4.70;2.83;;;22.30;99.90;;;;;;4993884;28;20045;-46
2023/11/28 06:24:59;;;;;;;5.75;3.05;;;22.30;99.90;;;;;;4993700;28;20486;-46
2023/11/28 06:27:25;;;;;;;5.07;3.08;;;22.30;99.90;;;;;;4993696;28;20029;-47
2023/11/28 06:29:52;;;;;;;2.95;2.40;;;22.30;99.90;;;;;;4993865;28;20026;-47
2023/11/28 06:32:18;;;;;;;7.77;2.90;;;22.30;99.90;;;;;;4993763;28;20022;-47
2023/11/28 06:34:46;;;;;;;4.07;3.53;;;22.30;99.90;;;;;;4993688;28;20771;-46
2023/11/28 06:37:13;;;;;;;5.70;2.78;;;22.30;99.90;;;;;;4992517;28;20544;-46
2023/11/28 06:39:39;;;;;;;5.33;3.17;;;22.30;99.90;;;;;;4993661;28;20058;-47
2023/11/28 06:42:06;;;;;;;5.50;3.15;;;22.30;99.90;;;;;;4993841;28;20101;-47
2023/11/28 06:44:33;;;;;;;4.47;2.70;;;22.30;99.90;;;;;;4993263;28;20045;-46
2023/11/28 06:47:00;;;;;;;6.65;3.10;;;22.30;99.90;;;;;;4993413;28;20057;-47
2023/11/28 06:49:26;;;;;;;4.43;2.97;;;22.30;99.90;;;;;;4993437;28;20026;-47
2023/11/28 06:51:52;;;;;;;3.65;3.08;;;22.30;99.90;;;;;;4992084;28;20121;-47
2023/11/28 06:54:18;;;;;;;3.88;2.60;;;22.30;99.90;;;;;;5008315;28;20441;-46
2023/11/28 06:56:44;;;;;;;5.88;2.90;;;22.30;99.90;;;;;;4993328;28;20030;-47
2023/11/28 06:59:11;;;;;;;5.82;3.90;;;22.30;99.90;;;;;;4993150;28;20022;-47
2023/11/28 07:01:40;;;;;;;4.40;2.60;;;22.30;99.90;;;;;;4993366;28;20057;-47
2023/11/28 07:04:06;;;;;;;3.50;2.70;;;22.30;99.90;;;;;;4993319;28;20487;-46
2023/11/28 07:06:32;;;;;;;4.22;2.78;;;22.30;99.90;;;;;;4993161;28;20084;-47
2023/11/28 07:08:58;;;;;;;4.75;2.55;;;22.30;99.90;;;;;;4993243;28;20026;-48
2023/11/28 07:11:24;;;;;;;4.47;2.80;;;22.20;99.90;;;;;;4993177;28;20034;-47
2023/11/28 07:13:50;;;;;;;6.68;3.65;;;22.20;99.90;;;;;;4992964;28;20023;-50
2023/11/28 07:16:17;;;;;;;7.57;2.72;;;22.20;99.90;;;;;;4993158;28;20483;-48
2023/11/28 07:18:44;;;;;;;3.88;3.20;;;22.20;99.90;;;;;;4992837;28;20038;-47
2023/11/28 07:21:10;;;;;;;5.20;3.20;;;22.20;99.90;;;;;;4993324;28;20026;-48
2023/11/28 07:23:37;;;;;;;5.57;3.00;;;22.20;99.90;;;;;;4992452;28;20022;-47
2023/11/28 07:26:06;;;;;;;6.68;2.78;;;22.20;99.90;;;;;;4992916;28;20594;-47
2023/11/28 07:28:32;;;;;;;6.93;3.30;;;22.20;99.90;;;;;;4992922;28;20026;-47
2023/11/28 07:30:58;;;;;;;5.07;3.25;;;22.20;99.90;;;;;;4992879;28;20045;-47
2023/11/28 07:33:25;;;;;;;5.90;3.53;;;22.20;99.90;;;;;;4992972;28;20097;-46
2023/11/28 07:35:51;;;;;;;9.25;3.88;;;22.20;99.90;;;;;;4992910;28;20026;-48
2023/11/28 07:38:20;;;;;;;10.17;3.97;;;22.20;99.90;;;;;;4993033;28;20101;-48
2023/11/28 07:40:46;;;;;;;7.63;3.75;;;22.20;99.90;;;;;;4993014;28;20426;-48
2023/11/28 07:43:12;;;;;;;5.78;3.80;;;22.20;99.90;;;;;;4993009;28;20027;-48
2023/11/28 07:45:38;;;;;;;5.78;3.78;;;22.20;99.90;;;;;;4992917;28;20506;-48
2023/11/28 07:48:04;;;;;;;6.40;3.75;;;22.20;99.90;;;;;;4992815;28;20057;-48
2023/11/28 07:50:30;;;;;;;6.40;3.92;;;22.20;99.90;;;;;;4991429;28;20434;-48
2023/11/28 07:52:57;;;;;;;5.10;3.55;;;22.20;99.90;;;;;;4992742;28;20030;-48
2023/11/28 07:55:22;;;;;;;6.65;4.13;;;22.20;99.90;;;;;;4992716;28;20034;-48
2023/11/28 07:57:48;;;;;;;6.00;3.83;;;22.20;99.90;;;;;;4992602;28;20030;-49
2023/11/28 08:00:14;;;;;;;6.20;4.07;;;22.20;99.90;;;;;;4992806;28;20033;-48
2023/11/28 08:02:41;;;;;;;6.88;4.63;;;22.20;99.90;;;;;;4992706;28;20053;-48
2023/11/28 08:05:07;;;;;;;5.18;4.07;;;22.20;99.90;;;;;;4992520;28;20037;-48
2023/11/28 08:07:33;;;;;;;7.90;3.67;;;22.20;99.90;;;;;;4991359;28;20025;-48
2023/11/28 08:10:00;;;;;;;6.85;4.45;;;22.20;99.90;;;;;;4992646;28;20026;-47
2023/11/28 08:12:26;;;;;;;9.00;4.97;;;22.20;99.90;;;;;;4992584;28;20015;-47
2023/11/28 08:14:54;;;;;;;9.60;4.78;;;22.20;99.90;;;;;;4992510;28;20034;-48
2023/11/28 08:17:20;;;;;;;4.72;3.45;;;22.30;99.90;;;;;;4992299;28;20061;-47
2023/11/28 08:19:46;;;;;;;6.43;4.63;;;22.30;99.90;;;;;;4992014;28;20030;-48
2023/11/28 08:22:12;;;;;;;7.40;4.32;;;22.30;99.90;;;;;;4991981;28;20375;-48
2023/11/28 08:24:38;;;;;;;8.90;5.07;;;22.30;99.90;;;;;;4991887;28;20081;-47
2023/11/28 08:27:05;;;;;;;6.80;4.88;;;22.30;99.90;;;;;;5007083;28;20014;-47
2023/11/28 08:29:30;;;;;;;5.78;4.70;;;22.40;99.90;;;;;;4991916;28;20106;-47
2023/11/28 08:31:59;;;;;;;6.60;4.75;;;22.40;99.90;;;;;;4991749;28;20101;-47
2023/11/28 08:34:25;;;;;;;6.47;4.57;;;22.40;99.90;;;;;;4993410;28;20022;-47
2023/11/28 08:36:51;;;;;;;6.10;4.03;;;22.50;99.90;;;;;;4995631;28;20033;-47
2023/11/28 08:39:18;;;;;;;7.05;4.50;;;22.50;99.90;;;;;;4995435;28;20022;-47
2023/11/28 08:41:43;;;;;;;6.60;4.55;;;22.50;99.90;;;;;;4995508;28;20065;-47
2023/11/28 08:44:09;;;;;;;6.75;4.63;;;22.60;99.90;;;;;;4995271;28;20053;-47
2023/11/28 08:46:37;;;;;;;7.80;4.78;;;22.60;99.90;;;;;;4995343;28;20105;-48
2023/11/28 08:49:06;;;;;;;6.47;4.40;;;22.60;99.90;;;;;;4995186;28;20125;-48
2023/11/28 08:51:32;;;;;;;6.53;4.60;;;22.70;99.90;;;;;;4995164;28;20057;-48
2023/11/28 08:53:58;;;;;;;7.45;4.97;;;22.70;99.90;;;;;;4995157;28;20047;-47
2023/11/28 08:56:24;;;;;;;6.68;4.97;;;22.80;99.90;;;;;;4995164;28;20037;-48
2023/11/28 08:58:50;;;;;;;6.95;4.65;;;22.80;99.90;;;;;;5010053;28;20435;-47
2023/11/28 09:01:16;;;;;;;5.32;4.57;;;22.80;99.90;;;;;;5010015;28;20065;-48
2023/11/28 09:03:42;;;;;;;21.33;5.40;;;22.90;99.90;;;;;;4995609;28;20494;-47
2023/11/28 09:06:08;;;;;;;6.60;4.72;;;22.90;99.90;;;;;;4994043;28;20070;-48
2023/11/28 09:08:35;;;;;;;6.40;4.53;;;22.90;99.90;;;;;;4995399;28;20018;-47
2023/11/28 09:11:02;;;;;;;8.00;4.35;;;23.00;99.90;;;;;;4995173;28;20030;-47
2023/11/28 09:13:28;;;;;;;;;;;23.00;99.90;;;;;;4995597;28;20030;-47
2023/11/28 09:15:55;;;;;;;7.15;4.90;;;23.00;99.90;;;;;;4995218;28;19913;-48
2023/11/28 09:18:21;;;;;;;7.45;4.60;;;23.00;99.90;;;;;;4993962;28;20033;-47
2023/11/28 09:20:47;;;;;;;7.97;4.63;;;23.00;99.90;;;;;;4995237;28;20403;-48
2023/11/28 09:23:13;;;;;;;8.63;4.78;;;23.00;99.90;;;;;;4993983;28;20030;-48
2023/11/28 09:25:39;;;;;;;6.35;4.38;;;23.00;99.90;;;;;;4994871;28;20034;-48
2023/11/28 09:28:05;;;;;;;8.68;4.82;;;23.00;99.90;;;;;;4995078;28;20445;-47
2023/11/28 09:30:31;;;;;;;6.85;4.35;;;23.00;99.90;;;;;;4994775;28;20030;-47
2023/11/28 09:32:57;;;;;;;6.47;4.00;;;23.00;99.90;;;;;;4994861;28;20027;-48
2023/11/28 09:35:23;;;;;;;6.95;4.20;;;23.00;99.90;;;;;;4994782;28;20029;-48
2023/11/28 09:37:49;;;;;;;9.35;3.85;;;23.00;99.90;;;;;;4994784;28;20023;-48
2023/11/28 09:40:15;;;;;;;6.88;4.25;;;23.00;99.90;;;;;;4995017;28;20085;-48
2023/11/28 09:42:42;;;;;;;6.75;3.72;;;23.00;99.90;;;;;;4994674;28;20030;-47
2023/11/28 09:45:08;;;;;;;6.82;4.05;;;23.00;99.90;;;;;;4994100;28;20036;-48
2023/11/28 09:47:36;;;;;;;7.50;4.28;;;23.00;99.90;;;;;;4994396;28;20022;-48
2023/11/28 09:50:03;;;;;;;;;;;23.10;99.90;;;;;;4995055;28;20102;-48
2023/11/28 09:52:33;;;;;;;6.35;3.83;;;23.10;99.90;;;;;;4994531;28;20285;-48
2023/11/28 09:55:00;;;;;;;5.05;3.80;;;23.10;99.90;;;;;;4994618;28;20046;-48
2023/11/28 09:57:32;;;;;;;7.32;3.88;;;23.10;99.90;;;;;;4994505;28;20023;-48
2023/11/28 09:59:58;;;;;;;4.88;3.63;;;23.10;99.90;;;;;;4994430;28;20392;-49
2023/11/28 10:02:27;;;;;;;9.25;3.72;;;23.10;99.90;;;;;;4994242;28;20064;-48
2023/11/28 10:04:53;;;;;;;5.78;3.67;;;23.10;99.90;;;;;;4994234;28;20034;-48
2023/11/28 10:07:31;;;;;;;7.63;4.03;;;23.20;99.90;;;;;;4994404;28;20030;-48
2023/11/28 10:10:06;;;;;;;9.40;4.00;;;23.20;99.90;;;;;;4994118;28;20034;-48
2023/11/28 10:12:32;;;;;;;4.80;3.47;;;23.20;99.90;;;;;;4994036;28;20384;-48
2023/11/28 10:14:58;;;;;;;9.82;4.00;;;23.20;99.90;;;;;;4994066;28;20113;-48
2023/11/28 10:17:24;;;;;;;6.18;3.53;;;23.20;99.90;;;;;;4994028;28;20105;-48
2023/11/28 10:19:50;;;;;;;7.53;3.97;;;23.30;99.90;;;;;;4994092;28;20379;-47
2023/11/28 10:22:17;;;;;;;8.27;3.92;;;23.30;99.90;;;;;;4994104;28;20027;-47
2023/11/28 10:24:43;;;;;;;6.03;3.80;;;23.30;99.90;;;;;;4993707;28;20052;-47
2023/11/28 10:27:12;;;;;;;5.80;3.05;;;23.30;99.90;;;;;;4993838;28;20041;-48
2023/11/28 10:29:39;;;;;;;5.93;3.72;;;23.40;99.90;;;;;;4992503;28;20033;-48
2023/11/28 10:32:06;;;;;;;6.45;3.78;;;23.40;99.90;;;;;;4993752;28;20023;-48
2023/11/28 10:34:35;;;;;;;5.18;3.65;;;23.50;99.90;;;;;;4993663;28;20030;-47
2023/11/28 10:37:01;;;;;;;6.97;3.40;;;23.50;99.90;;;;;;4993723;28;20037;-47
2023/11/28 10:39:27;;;;;;;4.85;3.20;;;23.50;99.90;;;;;;4993636;28;20442;-48
2023/11/28 10:41:53;;;;;;;5.68;3.60;;;23.60;99.90;;;;;;4993709;28;20387;-50
2023/11/28 10:44:20;;;;;;;9.55;4.38;;;23.60;99.90;;;;;;4993673;28;20144;-47
2023/11/28 10:46:48;;;;;;;9.48;3.28;;;23.60;99.90;;;;;;4993578;28;20037;-47
2023/11/28 10:49:14;;;;;;;4.03;2.97;;;23.60;99.90;;;;;;4993512;28;20023;-47
2023/11/28 10:51:40;;;;;;;7.45;3.63;;;23.60;99.90;;;;;;4993338;28;20502;-48
2023/11/28 10:54:08;;;;;;;5.38;3.13;;;23.70;99.90;;;;;;5008410;28;20028;-47
2023/11/28 10:56:48;;;;;;;7.30;3.30;;;23.70;99.90;;;;;;4993105;28;20022;-48
2023/11/28 10:59:25;;;;;;;4.75;3.30;;;23.70;99.90;;;;;;4992754;28;20368;-48
2023/11/28 11:01:51;;;;;;;3.58;3.20;;;23.70;99.90;;;;;;5008448;28;20053;-48
2023/11/28 11:04:17;;;;;;;7.63;3.20;;;23.80;99.90;;;;;;4993021;28;20450;-48
2023/11/28 11:06:43;;;;;;;5.43;3.05;;;23.80;99.90;;;;;;4993041;28;20110;-48
2023/11/28 11:09:11;;;;;;;3.60;2.67;;;23.80;99.90;;;;;;4993120;28;20049;-48
2023/11/28 11:11:38;;;;;;;;;;;23.80;99.90;;;;;;4993429;28;20029;-48
2023/11/28 11:14:25;;;;;;;4.30;2.72;;;23.90;99.90;;;;;;4993151;28;19905;-49
2023/11/28 11:17:00;;;;;;;4.40;2.80;;;23.90;99.90;;;;;;4993085;28;20046;-48
2023/11/28 11:19:27;;;;;;;5.78;3.05;;;23.90;99.90;;;;;;4991815;28;20089;-48
2023/11/28 11:22:01;;;;;;;6.80;3.60;;;24.00;99.90;;;;;;4993247;28;20026;-48
2023/11/28 11:24:27;;;;;;;6.50;2.85;;;24.00;99.90;;;;;;4993057;28;20080;-48
2023/11/28 11:26:54;;;;;;;6.75;3.35;;;24.00;99.90;;;;;;4993209;28;20031;-49
2023/11/28 11:29:26;;;;;;;6.28;3.25;;;24.00;99.90;;;;;;4993186;28;20026;-48
2023/11/28 11:31:56;;;;;;;4.13;2.83;;;24.10;99.90;;;;;;4993326;28;20026;-49
2023/11/28 11:34:40;;;;;;;8.20;3.80;;;24.10;99.90;;;;;;4993238;28;20027;-49
2023/11/28 11:37:13;;;;;;;6.18;3.33;;;24.10;99.90;;;;;;4992730;28;20026;-50
2023/11/28 11:39:44;;;;;;;6.68;3.58;;;24.20;99.90;;;;;;4992987;28;20109;-49
2023/11/28 11:42:26;;;;;;;6.50;3.47;;;24.20;99.90;;;;;;4992734;28;20022;-49
2023/11/28 11:44:57;;;;;;;4.97;3.30;;;24.30;99.90;;;;;;4992876;28;20073;-49
2023/11/28 11:47:28;;;;;;;6.05;3.78;;;24.30;99.90;;;;;;4992735;28;20497;-49
2023/11/28 11:49:55;;;;;;;5.72;3.38;;;24.30;99.90;;;;;;4992967;28;20030;-48
2023/11/28 11:52:25;;;;;;;4.68;3.42;;;24.30;99.90;;;;;;4992835;28;20034;-49
2023/11/28 11:55:15;;;;;;;6.18;3.55;;;24.40;99.90;;;;;;4992774;28;20058;-49
2023/11/28 11:57:45;;;;;;;5.15;3.40;;;24.40;99.90;;;;;;4992578;28;20032;-48
2023/11/28 12:00:13;;;;;;;4.88;3.28;;;24.50;99.90;;;;;;4992516;28;20431;-48
2023/11/28 12:02:40;;;;;;;7.25;3.85;;;24.50;99.90;;;;;;4992567;28;20050;-49
2023/11/28 12:05:07;;;;;;;6.40;3.40;;;24.50;99.90;;;;;;4992628;28;20030;-49
2023/11/28 12:07:33;;;;;;;5.33;3.77;;;24.50;99.90;;;;;;4992648;28;20432;-49
2023/11/28 12:10:07;;;;;;;7.97;4.78;;;24.60;99.90;;;;;;4995261;28;20030;-49
2023/11/28 12:12:33;;;;;;;7.82;3.38;;;24.60;99.90;;;;;;4996477;28;20453;-48
2023/11/28 12:14:59;;;;;;;6.00;3.72;;;24.60;99.90;;;;;;4996410;28;20025;-48
2023/11/28 12:17:25;;;;;;;8.73;4.50;;;24.60;99.90;;;;;;4996533;28;20026;-48
2023/11/28 12:19:50;;;;;;;8.85;4.13;;;24.70;99.90;;;;;;4996224;28;20502;-50
2023/11/28 12:22:16;;;;;;;9.55;4.13;;;24.70;99.90;;;;;;4996130;28;20105;-49
2023/11/28 12:24:43;;;;;;;9.13;4.20;;;24.70;99.90;;;;;;4996183;28;20480;-49
2023/11/28 12:27:10;;;;;;;6.57;3.97;;;24.70;99.90;;;;;;4996160;28;20101;-49
2023/11/28 12:29:37;;;;;;;7.60;4.15;;;24.70;99.90;;;;;;4996130;28;20108;-49
2023/11/28 12:32:05;;;;;;;6.63;3.90;;;24.70;99.90;;;;;;4996177;28;20027;-49
2023/11/28 12:34:31;;;;;;;;;;;24.70;99.90;;;;;;4996487;28;20027;-49
2023/11/28 12:36:58;;;;;;;8.57;4.63;;;24.70;99.90;;;;;;4996265;28;20006;-49
2023/11/28 12:39:29;;;;;;;7.32;4.93;;;24.70;99.90;;;;;;4996194;28;20606;-49
2023/11/28 12:41:55;;;;;;;6.47;4.10;;;24.70;99.90;;;;;;4994938;28;20403;-48
2023/11/28 12:44:28;;;;;;;9.00;4.17;;;24.70;99.90;;;;;;4995681;28;20030;-47
2023/11/28 12:46:55;;;;;;;8.10;4.70;;;24.70;99.90;;;;;;4996100;28;20030;-47